Wetterdaten: aktuell Montag, 05.06.2023 09:40
Datum Zeit Temp. Feuchte Luftdruck Regen Wind Richtung Richtung UV Solar Windben
05.06.2023 09:40 19.6 C 59 % 1015.2 hPa 0.0 mm 2.0 km/h (1 Bft) O-NO 59 2.1 UV-I 563.0 W/m 8.0 km/h (2 Bft)
05.06.2023 09:30 19.4 C 58 % 1015.1 hPa 0.0 mm 1.9 km/h (1 Bft) N 5 1.9 UV-I 538.0 W/m 4.8 km/h (1 Bft)
05.06.2023 09:20 18.9 C 56 % 1015.2 hPa 0.0 mm 2.4 km/h (1 Bft) W-NW 295 1.8 UV-I 520.0 W/m 6.4 km/h (2 Bft)
05.06.2023 09:10 18.9 C 58 % 1015.2 hPa 0.0 mm 4.4 km/h (1 Bft) W-NW 303 1.6 UV-I 494.0 W/m 8.0 km/h (2 Bft)
05.06.2023 09:00 18.3 C 59 % 1015.1 hPa 0.0 mm 1.6 km/h (1 Bft) NW 304 1.4 UV-I 462.0 W/m 6.4 km/h (2 Bft)
05.06.2023 08:50 18.0 C 61 % 1015.3 hPa 0.0 mm 1.7 km/h (1 Bft) N-NW 330 1.3 UV-I 429.0 W/m 6.4 km/h (2 Bft)
05.06.2023 08:40 17.4 C 62 % 1015.3 hPa 0.0 mm 0.4 km/h (0 Bft) NO 48 1.1 UV-I 404.0 W/m 3.2 km/h (1 Bft)
05.06.2023 08:30 17.1 C 66 % 1015.2 hPa 0.0 mm 0.0 km/h (0 Bft) O 79 1.0 UV-I 376.0 W/m 0.0 km/h (0 Bft)
05.06.2023 08:20 16.6 C 67 % 1015.1 hPa 0.0 mm 0.1 km/h (0 Bft) O 79 0.9 UV-I 348.0 W/m 1.6 km/h (1 Bft)
05.06.2023 08:10 16.3 C 67 % 1015.2 hPa 0.0 mm 0.4 km/h (0 Bft) O 79 0.8 UV-I 318.0 W/m 1.6 km/h (1 Bft)
05.06.2023 08:00 16.1 C 72 % 1015.2 hPa 0.0 mm 0.0 km/h (0 Bft) O 79 0.7 UV-I 294.0 W/m 0.0 km/h (0 Bft)
05.06.2023 07:50 15.6 C 71 % 1015.3 hPa 0.0 mm 0.1 km/h (0 Bft) O 79 0.6 UV-I 269.0 W/m 1.6 km/h (1 Bft)
05.06.2023 07:40 15.3 C 74 % 1015.3 hPa 0.0 mm 0.0 km/h (0 Bft) O 79 0.5 UV-I 241.0 W/m 1.6 km/h (1 Bft)
05.06.2023 07:30 15.1 C 77 % 1015.3 hPa 0.0 mm 0.0 km/h (0 Bft) O 79 0.0 UV-I 214.0 W/m 0.0 km/h (0 Bft)
05.06.2023 07:20 14.2 C 79 % 1015.3 hPa 0.0 mm 0.0 km/h (0 Bft) O 79 0.0 UV-I 185.0 W/m 0.0 km/h (0 Bft)
05.06.2023 07:10 13.6 C 82 % 1015.4 hPa 0.0 mm 0.0 km/h (0 Bft) O 79 0.0 UV-I 156.0 W/m 0.0 km/h (0 Bft)
05.06.2023 07:00 12.9 C 84 % 1015.3 hPa 0.0 mm 0.0 km/h (0 Bft) O 79 0.0 UV-I 127.0 W/m 0.0 km/h (0 Bft)
05.06.2023 06:50 12.4 C 83 % 1015.3 hPa 0.0 mm 0.0 km/h (0 Bft) O 79 0.0 UV-I 102.0 W/m 0.0 km/h (0 Bft)
05.06.2023 06:40 11.9 C 85 % 1015.3 hPa 0.0 mm 0.0 km/h (0 Bft) O 79 0.0 UV-I 79.0 W/m 0.0 km/h (0 Bft)
05.06.2023 06:30 11.6 C 84 % 1015.3 hPa 0.0 mm 1.6 km/h (1 Bft) O 79 0.0 UV-I 60.0 W/m 4.8 km/h (1 Bft)
05.06.2023 06:20 11.4 C 84 % 1015.2 hPa 0.0 mm 0.9 km/h (0 Bft) O 79 0.0 UV-I 44.0 W/m 4.8 km/h (1 Bft)
05.06.2023 06:10 11.3 C 84 % 1015.1 hPa 0.0 mm 0.0 km/h (0 Bft) O 80 0.0 UV-I 25.0 W/m 0.0 km/h (0 Bft)
05.06.2023 06:00 11.3 C 84 % 1015.0 hPa 0.0 mm 0.0 km/h (0 Bft) O 80 0.0 UV-I 18.0 W/m 0.0 km/h (0 Bft)
05.06.2023 05:50 11.2 C 85 % 1014.9 hPa 0.0 mm 0.0 km/h (0 Bft) O 80 0.0 UV-I 12.0 W/m 1.6 km/h (1 Bft)
05.06.2023 05:40 11.0 C 85 % 1014.9 hPa 0.0 mm 0.2 km/h (0 Bft) O 80 0.0 UV-I 7.0 W/m 3.2 km/h (1 Bft)
05.06.2023 05:30 10.9 C 85 % 1014.8 hPa 0.0 mm 0.0 km/h (0 Bft) O 80 0.0 UV-I 0.0 W/m 1.6 km/h (1 Bft)
05.06.2023 05:20 11.1 C 84 % 1014.9 hPa 0.0 mm 0.3 km/h (0 Bft) O 80 0.0 UV-I 0.0 W/m 3.2 km/h (1 Bft)
05.06.2023 05:10 11.2 C 84 % 1014.7 hPa 0.0 mm 0.2 km/h (0 Bft) O 80 0.0 UV-I 0.0 W/m 3.2 km/h (1 Bft)
05.06.2023 05:00 11.4 C 84 % 1014.8 hPa 0.0 mm 0.1 km/h (0 Bft) O 80 0.0 UV-I 0.0 W/m 1.6 km/h (1 Bft)
05.06.2023 04:50 11.6 C 84 % 1014.7 hPa 0.0 mm 0.0 km/h (0 Bft) O 80 0.0 UV-I 0.0 W/m 0.0 km/h (0 Bft)
05.06.2023 04:40 11.6 C 83 % 1014.8 hPa 0.0 mm 0.4 km/h (0 Bft) O 80 0.0 UV-I 0.0 W/m 4.8 km/h (1 Bft)
05.06.2023 04:30 11.6 C 84 % 1014.8 hPa 0.0 mm 0.0 km/h (0 Bft) O 80 0.0 UV-I 0.0 W/m 1.6 km/h (1 Bft)
05.06.2023 04:20 11.7 C 83 % 1014.8 hPa 0.0 mm 0.1 km/h (0 Bft) O 80 0.0 UV-I 0.0 W/m 1.6 km/h (1 Bft)
05.06.2023 04:10 11.8 C 84 % 1014.8 hPa 0.0 mm 1.3 km/h (1 Bft) O 80 0.0 UV-I 0.0 W/m 4.8 km/h (1 Bft)
05.06.2023 04:00 11.8 C 83 % 1014.8 hPa 0.0 mm 0.2 km/h (0 Bft) O 79 0.0 UV-I 0.0 W/m 1.6 km/h (1 Bft)
05.06.2023 03:50 12.1 C 82 % 1014.8 hPa 0.0 mm 0.1 km/h (0 Bft) O 80 0.0 UV-I 0.0 W/m 3.2 km/h (1 Bft)
05.06.2023 03:40 12.3 C 82 % 1014.8 hPa 0.0 mm 0.0 km/h (0 Bft) O 80 0.0 UV-I 0.0 W/m 0.0 km/h (0 Bft)
05.06.2023 03:30 12.5 C 82 % 1014.8 hPa 0.0 mm 0.0 km/h (0 Bft) O 80 0.0 UV-I 0.0 W/m 1.6 km/h (1 Bft)
05.06.2023 03:20 12.6 C 81 % 1014.9 hPa 0.0 mm 1.0 km/h (0 Bft) O 80 0.0 UV-I 0.0 W/m 6.4 km/h (2 Bft)
05.06.2023 03:10 12.8 C 81 % 1014.9 hPa 0.0 mm 1.2 km/h (1 Bft) O 80 0.0 UV-I 0.0 W/m 3.2 km/h (1 Bft)
05.06.2023 03:00 12.8 C 81 % 1014.9 hPa 0.0 mm 0.8 km/h (0 Bft) O 80 0.0 UV-I 0.0 W/m 3.2 km/h (1 Bft)
05.06.2023 02:50 12.8 C 81 % 1014.8 hPa 0.0 mm 1.3 km/h (1 Bft) O 80 0.0 UV-I 0.0 W/m 3.2 km/h (1 Bft)
05.06.2023 02:40 12.9 C 81 % 1014.8 hPa 0.0 mm 0.0 km/h (0 Bft) O 80 0.0 UV-I 0.0 W/m 1.6 km/h (1 Bft)
05.06.2023 02:30 13.1 C 81 % 1014.9 hPa 0.0 mm 0.6 km/h (0 Bft) O 80 0.0 UV-I 0.0 W/m 3.2 km/h (1 Bft)
05.06.2023 02:20 13.2 C 80 % 1014.9 hPa 0.0 mm 0.1 km/h (0 Bft) O 80 0.0 UV-I 0.0 W/m 1.6 km/h (1 Bft)
05.06.2023 02:10 13.3 C 81 % 1014.9 hPa 0.0 mm 0.4 km/h (0 Bft) O 80 0.0 UV-I 0.0 W/m 3.2 km/h (1 Bft)
05.06.2023 02:00 13.4 C 81 % 1014.9 hPa 0.0 mm 2.3 km/h (1 Bft) O 80 0.0 UV-I 0.0 W/m 4.8 km/h (1 Bft)
05.06.2023 01:50 13.7 C 79 % 1014.9 hPa 0.0 mm 1.4 km/h (1 Bft) O-NO 69 0.0 UV-I 0.0 W/m 6.4 km/h (2 Bft)
05.06.2023 01:40 13.9 C 78 % 1015.0 hPa 0.0 mm 0.0 km/h (0 Bft) O-NO 70 0.0 UV-I 0.0 W/m 0.0 km/h (0 Bft)
05.06.2023 01:30 14.1 C 77 % 1014.9 hPa 0.0 mm 0.0 km/h (0 Bft) O-NO 70 0.0 UV-I 0.0 W/m 0.0 km/h (0 Bft)
05.06.2023 01:20 14.1 C 77 % 1015.0 hPa 0.0 mm 0.0 km/h (0 Bft) NO 53 0.0 UV-I 0.0 W/m 0.0 km/h (0 Bft)
05.06.2023 01:10 14.2 C 78 % 1015.0 hPa 0.0 mm 0.0 km/h (0 Bft) NO 53 0.0 UV-I 0.0 W/m 0.0 km/h (0 Bft)
05.06.2023 01:00 14.4 C 77 % 1015.0 hPa 0.0 mm 0.4 km/h (0 Bft) NO 53 0.0 UV-I 0.0 W/m 3.2 km/h (1 Bft)
05.06.2023 00:50 14.7 C 76 % 1015.1 hPa 0.0 mm 1.5 km/h (1 Bft) NO 53 0.0 UV-I 0.0 W/m 3.2 km/h (1 Bft)
05.06.2023 00:40 14.8 C 75 % 1015.0 hPa 0.0 mm 1.3 km/h (1 Bft) NO 53 0.0 UV-I 0.0 W/m 3.2 km/h (1 Bft)
05.06.2023 00:30 14.9 C 75 % 1015.0 hPa 0.0 mm 0.6 km/h (0 Bft) NO 53 0.0 UV-I 0.0 W/m 1.6 km/h (1 Bft)
05.06.2023 00:20 15.2 C 74 % 1015.0 hPa 0.0 mm 0.4 km/h (0 Bft) NO 53 0.0 UV-I 0.0 W/m 3.2 km/h (1 Bft)
05.06.2023 00:10 15.2 C 74 % 1015.0 hPa 0.0 mm 2.0 km/h (1 Bft) NO 53 0.0 UV-I 0.0 W/m 4.8 km/h (1 Bft)
05.06.2023 00:00 15.1 C 75 % 1015.0 hPa 0.0 mm 0.0 km/h (0 Bft) NO 53 0.0 UV-I 0.0 W/m 1.6 km/h (1 Bft)
04.06.2023 23:50 15.2 C 75 % 1014.9 hPa 0.0 mm 0.1 km/h (0 Bft) NO 53 0.0 UV-I 0.0 W/m 3.2 km/h (1 Bft)
04.06.2023 23:40 15.5 C 74 % 1015.0 hPa 0.0 mm 0.0 km/h (0 Bft) O-NO 67 0.0 UV-I 0.0 W/m 0.0 km/h (0 Bft)
04.06.2023 23:30 15.7 C 73 % 1014.9 hPa 0.0 mm 1.6 km/h (1 Bft) O-NO 67 0.0 UV-I 0.0 W/m 4.8 km/h (1 Bft)
04.06.2023 23:20 15.7 C 73 % 1014.8 hPa 0.0 mm 2.9 km/h (1 Bft) O-NO 67 0.0 UV-I 0.0 W/m 6.4 km/h (2 Bft)
04.06.2023 23:10 15.9 C 73 % 1014.7 hPa 0.0 mm 0.0 km/h (0 Bft) O-NO 67 0.0 UV-I 0.0 W/m 1.6 km/h (1 Bft)
04.06.2023 23:00 16.2 C 72 % 1014.6 hPa 0.0 mm 0.0 km/h (0 Bft) O-NO 67 0.0 UV-I 0.0 W/m 0.0 km/h (0 Bft)
04.06.2023 22:50 16.6 C 70 % 1014.6 hPa 0.0 mm 0.0 km/h (0 Bft) O-NO 67 0.0 UV-I 0.0 W/m 0.0 km/h (0 Bft)
04.06.2023 22:40 16.7 C 68 % 1014.5 hPa 0.0 mm 2.2 km/h (1 Bft) O-NO 67 0.0 UV-I 0.0 W/m 4.8 km/h (1 Bft)
04.06.2023 22:30 16.8 C 68 % 1014.4 hPa 0.0 mm 4.0 km/h (1 Bft) O-NO 67 0.0 UV-I 0.0 W/m 6.4 km/h (2 Bft)
04.06.2023 22:20 17.1 C 67 % 1014.4 hPa 0.0 mm 3.7 km/h (1 Bft) NO 51 0.0 UV-I 0.0 W/m 6.4 km/h (2 Bft)
04.06.2023 22:10 17.4 C 66 % 1014.4 hPa 0.0 mm 4.7 km/h (1 Bft) NO 51 0.0 UV-I 0.0 W/m 8.0 km/h (2 Bft)
04.06.2023 22:00 17.7 C 65 % 1014.2 hPa 0.0 mm 4.4 km/h (1 Bft) NO 47 0.0 UV-I 0.0 W/m 6.4 km/h (2 Bft)
04.06.2023 21:50 18.0 C 64 % 1014.1 hPa 0.0 mm 4.8 km/h (1 Bft) NO 49 0.0 UV-I 0.0 W/m 6.4 km/h (2 Bft)
04.06.2023 21:40 18.3 C 62 % 1013.9 hPa 0.0 mm 5.5 km/h (1 Bft) NO 46 0.0 UV-I 0.0 W/m 9.7 km/h (2 Bft)
04.06.2023 21:30 18.6 C 62 % 1013.9 hPa 0.0 mm 5.6 km/h (1 Bft) NO 44 0.0 UV-I 0.0 W/m 9.7 km/h (2 Bft)
04.06.2023 21:20 18.9 C 61 % 1013.7 hPa 0.0 mm 5.4 km/h (1 Bft) NO 51 0.0 UV-I 0.0 W/m 9.7 km/h (2 Bft)
04.06.2023 21:10 19.0 C 61 % 1013.6 hPa 0.0 mm 5.3 km/h (1 Bft) NO 40 0.0 UV-I 7.0 W/m 9.7 km/h (2 Bft)
04.06.2023 21:00 19.3 C 60 % 1013.6 hPa 0.0 mm 4.4 km/h (1 Bft) N 10 0.0 UV-I 12.0 W/m 8.0 km/h (2 Bft)
04.06.2023 20:50 19.7 C 59 % 1013.6 hPa 0.0 mm 4.5 km/h (1 Bft) NO 34 0.0 UV-I 16.0 W/m 9.7 km/h (2 Bft)
04.06.2023 20:40 19.9 C 58 % 1013.6 hPa 0.0 mm 6.0 km/h (2 Bft) N-NO 26 0.0 UV-I 21.0 W/m 11.3 km/h (2 Bft)
04.06.2023 20:30 20.3 C 57 % 1013.6 hPa 0.0 mm 6.2 km/h (2 Bft) N 5 0.0 UV-I 28.0 W/m 11.3 km/h (2 Bft)
04.06.2023 20:20 20.6 C 55 % 1013.5 hPa 0.0 mm 5.2 km/h (1 Bft) NO 55 0.0 UV-I 39.0 W/m 14.5 km/h (3 Bft)
04.06.2023 20:10 21.0 C 54 % 1013.4 hPa 0.0 mm 5.3 km/h (1 Bft) N-NO 23 0.0 UV-I 51.0 W/m 17.7 km/h (3 Bft)
04.06.2023 20:00 21.3 C 52 % 1013.4 hPa 0.0 mm 7.1 km/h (2 Bft) NO 55 0.0 UV-I 49.0 W/m 22.5 km/h (4 Bft)
04.06.2023 19:50 21.6 C 51 % 1013.5 hPa 0.0 mm 6.5 km/h (2 Bft) N-NW 339 0.0 UV-I 53.0 W/m 16.1 km/h (3 Bft)
04.06.2023 19:40 22.1 C 51 % 1013.5 hPa 0.0 mm 8.9 km/h (2 Bft) N-NW 335 0.0 UV-I 130.0 W/m 22.5 km/h (4 Bft)
04.06.2023 19:30 22.6 C 50 % 1013.6 hPa 0.0 mm 6.6 km/h (2 Bft) N-NO 17 0.0 UV-I 178.0 W/m 19.3 km/h (3 Bft)
04.06.2023 19:20 23.2 C 48 % 1013.4 hPa 0.0 mm 5.9 km/h (2 Bft) N 5 0.0 UV-I 213.0 W/m 20.9 km/h (4 Bft)
04.06.2023 19:10 23.4 C 48 % 1013.4 hPa 0.0 mm 8.9 km/h (2 Bft) NO 38 0.5 UV-I 250.0 W/m 22.5 km/h (4 Bft)
04.06.2023 19:00 23.4 C 48 % 1013.3 hPa 0.0 mm 5.1 km/h (1 Bft) N-NW 345 0.6 UV-I 265.0 W/m 14.5 km/h (3 Bft)
04.06.2023 18:50 23.1 C 47 % 1013.2 hPa 0.0 mm 8.8 km/h (2 Bft) O-NO 74 0.5 UV-I 272.0 W/m 17.7 km/h (3 Bft)
04.06.2023 18:40 23.2 C 46 % 1013.2 hPa 0.0 mm 10.3 km/h (2 Bft) NO 55 0.5 UV-I 79.0 W/m 17.7 km/h (3 Bft)
04.06.2023 18:30 23.8 C 46 % 1013.2 hPa 0.0 mm 10.4 km/h (2 Bft) O-NO 68 0.6 UV-I 104.0 W/m 24.1 km/h (4 Bft)
04.06.2023 18:20 24.6 C 43 % 1013.2 hPa 0.0 mm 8.3 km/h (2 Bft) NO 40 0.8 UV-I 132.0 W/m 16.1 km/h (3 Bft)
04.06.2023 18:10 24.1 C 44 % 1013.2 hPa 0.0 mm 9.6 km/h (2 Bft) O-NO 61 1.1 UV-I 165.0 W/m 17.7 km/h (3 Bft)
04.06.2023 18:00 24.3 C 44 % 1013.2 hPa 0.0 mm 11.1 km/h (2 Bft) NO 51 1.3 UV-I 443.0 W/m 20.9 km/h (4 Bft)
04.06.2023 17:50 24.3 C 46 % 1013.2 hPa 0.0 mm 10.6 km/h (2 Bft) O 79 1.1 UV-I 278.0 W/m 24.1 km/h (4 Bft)
04.06.2023 17:40 24.9 C 45 % 1013.2 hPa 0.0 mm 12.5 km/h (3 Bft) N-NO 21 1.1 UV-I 181.0 W/m 24.1 km/h (4 Bft)
04.06.2023 17:30 24.5 C 47 % 1013.2 hPa 0.0 mm 10.0 km/h (2 Bft) O-NO 70 1.4 UV-I 230.0 W/m 20.9 km/h (4 Bft)
04.06.2023 17:20 25.6 C 45 % 1013.1 hPa 0.0 mm 11.3 km/h (2 Bft) NO 46 1.6 UV-I 591.0 W/m 20.9 km/h (4 Bft)
04.06.2023 17:10 25.6 C 46 % 1013.1 hPa 0.0 mm 13.6 km/h (3 Bft) O-NO 69 2.2 UV-I 555.0 W/m 20.9 km/h (4 Bft)
04.06.2023 17:00 25.7 C 46 % 1013.1 hPa 0.0 mm 10.3 km/h (2 Bft) NO 51 2.7 UV-I 710.0 W/m 19.3 km/h (3 Bft)
04.06.2023 16:50 25.4 C 46 % 1013.2 hPa 0.0 mm 13.5 km/h (3 Bft) O-NO 61 2.8 UV-I 675.0 W/m 20.9 km/h (4 Bft)
04.06.2023 16:40 25.1 C 47 % 1013.4 hPa 0.0 mm 9.8 km/h (2 Bft) O 86 2.4 UV-I 517.0 W/m 22.5 km/h (4 Bft)
04.06.2023 16:30 25.3 C 44 % 1013.3 hPa 0.0 mm 10.7 km/h (2 Bft) O 80 2.3 UV-I 436.0 W/m 22.5 km/h (4 Bft)
04.06.2023 16:20 25.4 C 45 % 1013.5 hPa 0.0 mm 13.1 km/h (3 Bft) O-NO 69 3.2 UV-I 691.0 W/m 24.1 km/h (4 Bft)
04.06.2023 16:10 25.6 C 46 % 1013.5 hPa 0.0 mm 9.1 km/h (2 Bft) NO 40 3.6 UV-I 733.0 W/m 17.7 km/h (3 Bft)
04.06.2023 16:00 25.1 C 45 % 1013.5 hPa 0.0 mm 9.6 km/h (2 Bft) O 98 3.2 UV-I 615.0 W/m 19.3 km/h (3 Bft)
04.06.2023 15:50 25.3 C 48 % 1013.6 hPa 0.0 mm 10.2 km/h (2 Bft) O-NO 74 3.5 UV-I 680.0 W/m 19.3 km/h (3 Bft)
04.06.2023 15:40 25.6 C 41 % 1013.7 hPa 0.0 mm 13.4 km/h (3 Bft) NO 37 3.8 UV-I 708.0 W/m 25.7 km/h (4 Bft)
04.06.2023 15:30 25.4 C 46 % 1013.7 hPa 0.0 mm 11.5 km/h (2 Bft) O-NO 74 4.3 UV-I 800.0 W/m 22.5 km/h (4 Bft)
04.06.2023 15:20 25.2 C 46 % 1013.8 hPa 0.0 mm 14.7 km/h (3 Bft) O-NO 76 4.5 UV-I 809.0 W/m 27.4 km/h (4 Bft)
04.06.2023 15:10 25.2 C 45 % 1013.9 hPa 0.0 mm 11.1 km/h (2 Bft) O-NO 58 4.7 UV-I 823.0 W/m 25.7 km/h (4 Bft)
04.06.2023 15:00 24.9 C 48 % 1013.9 hPa 0.0 mm 11.3 km/h (2 Bft) NO 43 4.8 UV-I 840.0 W/m 22.5 km/h (4 Bft)
04.06.2023 14:50 24.7 C 48 % 1014.1 hPa 0.0 mm 10.3 km/h (2 Bft) NO 38 4.4 UV-I 703.0 W/m 22.5 km/h (4 Bft)
04.06.2023 14:40 24.8 C 46 % 1014.1 hPa 0.0 mm 12.8 km/h (3 Bft) NO 39 5.1 UV-I 868.0 W/m 25.7 km/h (4 Bft)
04.06.2023 14:30 24.6 C 47 % 1014.1 hPa 0.0 mm 13.0 km/h (3 Bft) NO 48 5.2 UV-I 868.0 W/m 25.7 km/h (4 Bft)
04.06.2023 14:20 24.4 C 46 % 1014.2 hPa 0.0 mm 14.3 km/h (3 Bft) NO 51 5.3 UV-I 875.0 W/m 25.7 km/h (4 Bft)
04.06.2023 14:10 24.6 C 45 % 1014.2 hPa 0.0 mm 9.6 km/h (2 Bft) O-NO 73 5.4 UV-I 879.0 W/m 25.7 km/h (4 Bft)
04.06.2023 14:00 24.2 C 46 % 1014.4 hPa 0.0 mm 12.0 km/h (2 Bft) O-NO 67 5.5 UV-I 886.0 W/m 27.4 km/h (4 Bft)
04.06.2023 13:50 24.1 C 54 % 1014.4 hPa 0.0 mm 9.5 km/h (2 Bft) N 9 5.6 UV-I 889.0 W/m 22.5 km/h (4 Bft)
04.06.2023 13:40 23.8 C 53 % 1014.6 hPa 0.0 mm 7.5 km/h (2 Bft) N-NO 15 5.5 UV-I 884.0 W/m 20.9 km/h (4 Bft)
04.06.2023 13:30 23.3 C 55 % 1014.7 hPa 0.0 mm 10.5 km/h (2 Bft) O-NO 67 5.6 UV-I 896.0 W/m 20.9 km/h (4 Bft)
04.06.2023 13:20 22.9 C 59 % 1014.8 hPa 0.0 mm 7.3 km/h (2 Bft) NO 50 5.7 UV-I 909.0 W/m 19.3 km/h (3 Bft)
04.06.2023 13:10 22.6 C 64 % 1014.8 hPa 0.0 mm 5.3 km/h (1 Bft) N-NO 15 5.5 UV-I 888.0 W/m 12.9 km/h (3 Bft)
04.06.2023 13:00 22.6 C 62 % 1014.9 hPa 0.0 mm 6.2 km/h (2 Bft) N-NO 25 5.5 UV-I 888.0 W/m 16.1 km/h (3 Bft)
04.06.2023 12:50 22.2 C 62 % 1014.8 hPa 0.0 mm 7.3 km/h (2 Bft) N-NO 15 5.6 UV-I 916.0 W/m 17.7 km/h (3 Bft)
04.06.2023 12:40 22.1 C 65 % 1015.0 hPa 0.0 mm 6.2 km/h (2 Bft) NO 55 5.8 UV-I 1011.0 W/m 14.5 km/h (3 Bft)
04.06.2023 12:30 21.3 C 65 % 1015.0 hPa 0.0 mm 6.7 km/h (2 Bft) O-NO 72 5.6 UV-I 1000.0 W/m 14.5 km/h (3 Bft)
04.06.2023 12:20 20.9 C 68 % 1014.9 hPa 0.0 mm 7.6 km/h (2 Bft) NO 41 5.3 UV-I 911.0 W/m 16.1 km/h (3 Bft)
04.06.2023 12:10 19.4 C 71 % 1015.0 hPa 0.0 mm 8.6 km/h (2 Bft) O 89 4.3 UV-I 394.0 W/m 17.7 km/h (3 Bft)
04.06.2023 12:00 19.4 C 70 % 1015.0 hPa 0.0 mm 7.5 km/h (2 Bft) O-NO 63 4.7 UV-I 415.0 W/m 14.5 km/h (3 Bft)
04.06.2023 11:50 19.6 C 69 % 1015.1 hPa 0.0 mm 6.4 km/h (2 Bft) O-NO 65 3.5 UV-I 570.0 W/m 14.5 km/h (3 Bft)
04.06.2023 11:40 19.3 C 69 % 1015.1 hPa 0.0 mm 5.7 km/h (1 Bft) O-NO 77 3.5 UV-I 559.0 W/m 12.9 km/h (3 Bft)
04.06.2023 11:30 19.4 C 69 % 1015.1 hPa 0.0 mm 9.5 km/h (2 Bft) O-NO 64 2.9 UV-I 413.0 W/m 17.7 km/h (3 Bft)
04.06.2023 11:20 20.2 C 67 % 1015.2 hPa 0.0 mm 5.7 km/h (1 Bft) O 87 3.1 UV-I 457.0 W/m 16.1 km/h (3 Bft)
04.06.2023 11:10 20.3 C 66 % 1015.2 hPa 0.0 mm 6.0 km/h (2 Bft) N 355 4.2 UV-I 930.0 W/m 16.1 km/h (3 Bft)
04.06.2023 11:00 19.9 C 69 % 1015.2 hPa 0.0 mm 6.6 km/h (2 Bft) N-NO 26 3.8 UV-I 856.0 W/m 11.3 km/h (2 Bft)
04.06.2023 10:50 19.4 C 69 % 1015.1 hPa 0.0 mm 4.0 km/h (1 Bft) N-NW 342 2.7 UV-I 396.0 W/m 9.7 km/h (2 Bft)
04.06.2023 10:40 19.8 C 69 % 1015.1 hPa 0.0 mm 2.9 km/h (1 Bft) N 355 3.6 UV-I 896.0 W/m 8.0 km/h (2 Bft)
04.06.2023 10:30 19.1 C 68 % 1015.0 hPa 0.0 mm 3.5 km/h (1 Bft) O-NO 61 3.2 UV-I 768.0 W/m 9.7 km/h (2 Bft)
04.06.2023 10:20 18.4 C 70 % 1015.1 hPa 0.0 mm 2.2 km/h (1 Bft) NW 322 2.3 UV-I 390.0 W/m 6.4 km/h (2 Bft)
04.06.2023 10:10 18.2 C 75 % 1015.1 hPa 0.0 mm 3.1 km/h (1 Bft) O 80 2.7 UV-I 744.0 W/m 6.4 km/h (2 Bft)
04.06.2023 10:00 16.6 C 78 % 1015.1 hPa 0.0 mm 2.3 km/h (1 Bft) O-NO 66 1.8 UV-I 364.0 W/m 4.8 km/h (1 Bft)
_ Min-Zeit 05:30 15:40 17:00 - 22:50 - - - - 22:50
Minimum _ 10.9 C 41 % 1013.1 hPa - 0.0 km/h (0 Bft) - - - - 0.0 km/h (0 Bft)
_ Max-Zeit 17:00 05:30 07:10 10:00 15:20 - - 12:40 12:40 14:00
Maximum _ 25.7 C 85 % 1015.4 hPa 0.0 mm 14.7 km/h
O-NO (3 Bft)
- - 5.8 UV-I 1011.0 W/m 27.4 km/h
NO (4 Bft)
Durchschnitt _ 18.2 C 66 % 1014.5 hPa #0.0 mm 4.4 km/h (1 Bft) NO - 1.2 UV-I 251.4 W/m 9.8 km/h (2 Bft)